Terminal Aerodrome Forecast
Issued by NWS

Home | Current Version | Previous Version | Text Only | Print | Product List | Glossary On
Versions: 1 2 3 4 5 6 7 8 9 10 11 12 13 14 15 16
000
FTUS43 KPAH 201137
TAFOWB
TAF
KOWB 201137Z 2012/2112 21008KT P6SM SCT035 BKN200 WS020/25040KT
     FM201600 21008KT P6SM SCT015 OVC020
     FM202200 19007KT P6SM SCT010 OVC015=

USA.gov is the U.S. government's official web portal to all federal, state and local government web resources and services.